Edgemere, Massachusetts
Current Conditions -  °F | °C
As of 10:54 AM on Friday 24 Oct 2014 (Local Time) from KORH Reporting Station
Overcast Overcast  
Wind Chill: 40°   Ceiling: 800
Heat Index: 46°   Visibility: 10mi
Dew Point: 43°   Wind: 14mph
Humidity: 89%   Direction: 320°NW
Pressure: 29.73"   Gusts: NA
Location:  42.2859°N, 71.7148°W
Report Text: KORH 241454Z 32012KT 10SM BKN008 BKN017 OVC047 08/06 A2973 RMK AO2 SLP072 60002 T00780061 51007
Loading
Personal Weather Stations






























Interactive Weather Map
Tropical Storm Tracking
New forecast layout! Learn more

10-Day Weather Forecast

Advertisements
Track Severe Weather on mobile